Time;durP1;ratioP1;P1;durP2;ratioP2;P2;SDS_P1;SDS_P2;PMS_P1;PMS_P2;Temp;Humidity;BMP_temperature;BMP_pressure;BME280_temperature;BME280_humidity;BME280_pressure;Samples;Min_cycle;Max_cycle;Signal;HPM_P1;HPM_P2
2022/04/10 00:01:49;;;;;;;;;;;3.60;99.90;;;;;;5095573;28;20066;-54
2022/04/10 00:04:15;;;;;;;;;;;3.60;99.90;;;;;;5095651;28;19961;-54
2022/04/10 00:06:40;;;;;;;;;;;3.60;99.90;;;;;;5094806;28;20358;-55
2022/04/10 00:09:06;;;;;;;;;;;3.50;99.90;;;;;;5095791;28;20386;-54
2022/04/10 00:11:31;;;;;;;;;;;3.60;99.90;;;;;;5095359;28;20337;-53
2022/04/10 00:13:57;;;;;;;;;;;3.50;99.90;;;;;;5094968;28;19920;-54
2022/04/10 00:16:23;;;;;;;;;;;3.50;99.90;;;;;;5094835;28;19908;-54
2022/04/10 00:18:48;;;;;;;;;;;3.50;99.90;;;;;;5094191;28;20002;-55
2022/04/10 00:21:14;;;;;;;;;;;3.50;99.90;;;;;;5094297;28;19950;-54
2022/04/10 00:23:39;;;;;;;;;;;3.50;99.90;;;;;;5095420;28;19919;-53
2022/04/10 00:26:05;;;;;;;;;;;3.50;99.90;;;;;;5094779;28;19908;-53
2022/04/10 00:28:30;;;;;;;;;;;3.50;99.90;;;;;;5094061;28;19948;-55
2022/04/10 00:30:56;;;;;;;;;;;3.60;99.90;;;;;;5094775;28;19961;-54
2022/04/10 00:33:22;;;;;;;;;;;3.60;99.90;;;;;;5095105;28;20375;-53
2022/04/10 00:35:47;;;;;;;;;;;3.50;99.90;;;;;;5093244;28;19966;-55
2022/04/10 00:38:13;;;;;;;;;;;3.50;99.90;;;;;;5095218;28;19919;-54
2022/04/10 00:40:38;;;;;;;;;;;3.50;99.90;;;;;;5094912;28;19915;-55
2022/04/10 00:43:04;;;;;;;;;;;3.50;99.90;;;;;;5094337;28;20362;-55
2022/04/10 00:45:29;;;;;;;;;;;3.50;99.90;;;;;;5094691;28;19912;-55
2022/04/10 00:47:54;;;;;;;;;;;3.50;99.90;;;;;;5094109;28;19913;-57
2022/04/10 00:50:20;;;;;;;;;;;3.50;99.90;;;;;;5093878;28;20431;-55
2022/04/10 00:52:47;;;;;;;;;;;3.40;99.90;;;;;;5094808;28;19912;-54
2022/04/10 00:55:13;;;;;;;;;;;3.30;99.90;;;;;;5094356;28;19917;-53
2022/04/10 00:57:38;;;;;;;;;;;3.20;99.90;;;;;;5093561;28;19912;-55
2022/04/10 01:00:06;;;;;;;;;;;3.20;99.90;;;;;;5094184;28;19914;-55
2022/04/10 01:02:31;;;;;;;;;;;3.10;99.90;;;;;;5094013;28;19994;-54
2022/04/10 01:04:56;;;;;;;;;;;3.10;99.90;;;;;;5093693;28;20016;-56
2022/04/10 01:07:22;;;;;;;;;;;3.00;99.90;;;;;;5093976;28;19920;-55
2022/04/10 01:09:47;;;;;;;;;;;3.00;99.90;;;;;;5093860;28;19908;-54
2022/04/10 01:12:13;;;;;;;;;;;3.00;99.90;;;;;;5094214;28;19908;-55
2022/04/10 01:14:39;;;;;;;;;;;2.90;99.90;;;;;;5094436;28;19924;-57
2022/04/10 01:17:08;;;;;;;;;;;2.90;99.90;;;;;;5092677;28;19943;-54
2022/04/10 01:19:34;;;;;;;;;;;2.90;99.90;;;;;;5094202;28;19912;-54
2022/04/10 01:22:03;;;;;;;;;;;2.90;99.90;;;;;;5094179;28;19996;-54
2022/04/10 01:24:28;;;;;;;;;;;2.90;99.90;;;;;;5093306;28;19912;-52
2022/04/10 01:26:54;;;;;;;;;;;2.90;99.90;;;;;;5093635;28;19981;-52
2022/04/10 01:29:19;;;;;;;;;;;2.90;99.90;;;;;;5093334;28;20383;-55
2022/04/10 01:31:46;;;;;;;;;;;2.90;99.90;;;;;;5092741;28;20370;-53
2022/04/10 01:34:15;;;;;;;;;;;2.90;99.90;;;;;;5093456;28;19924;-54
2022/04/10 01:36:41;;;;;;;;;;;2.90;99.90;;;;;;5093378;28;19921;-56
2022/04/10 01:39:07;;;;;;;;;;;2.90;99.90;;;;;;5093034;28;19912;-53
2022/04/10 01:41:36;;;;;;;;;;;2.90;99.90;;;;;;5093336;28;19912;-57
2022/04/10 01:44:03;;;;;;;;;;;3.00;99.90;;;;;;5093784;28;19914;-55
2022/04/10 01:46:30;;;;;;;;;;;3.00;99.90;;;;;;5092712;28;19919;-53
2022/04/10 01:48:56;;;;;;;;;;;3.10;99.90;;;;;;5093859;28;19908;-54
2022/04/10 01:51:23;;;;;;;;;;;3.10;99.90;;;;;;5093415;28;19912;-55
2022/04/10 01:53:49;;;;;;;;;;;3.20;99.90;;;;;;5092522;28;20389;-52
2022/04/10 01:56:14;;;;;;;;;;;3.20;99.90;;;;;;5093014;28;19991;-53
2022/04/10 01:58:41;;;;;;;;;;;3.30;99.90;;;;;;5093282;28;19912;-55
2022/04/10 02:01:07;;;;;;;;;;;3.30;99.90;;;;;;5091966;28;19934;-56
2022/04/10 02:03:33;;;;;;;;;;;3.20;99.90;;;;;;5093264;28;19919;-56
2022/04/10 02:06:00;;;;;;;;;;;3.20;99.90;;;;;;5092614;28;19912;-52
2022/04/10 02:08:28;;;;;;;;;;;3.20;99.90;;;;;;5093309;28;20428;-54
2022/04/10 02:10:54;;;;;;;;;;;3.20;99.90;;;;;;5093172;28;20367;-54
2022/04/10 02:13:20;;;;;;;;;;;3.20;99.90;;;;;;5092440;28;19920;-55
2022/04/10 02:15:45;;;;;;;;;;;3.20;99.90;;;;;;5093154;28;19912;-55
2022/04/10 02:18:11;;;;;;;;;;;3.30;99.90;;;;;;5093051;28;19916;-55
2022/04/10 02:20:36;;;;;;;;;;;3.30;99.90;;;;;;5092279;28;19912;-54
2022/04/10 02:23:02;;;;;;;;;;;3.30;99.90;;;;;;5093251;28;19914;-55
2022/04/10 02:25:27;;;;;;;;;;;3.40;99.90;;;;;;5092238;28;20359;-55
2022/04/10 02:27:53;;;;;;;;;;;3.40;99.90;;;;;;5092271;28;20291;-55
2022/04/10 02:30:18;;;;;;;;;;;3.40;99.90;;;;;;5092338;28;20343;-54
2022/04/10 02:32:44;;;;;;;;;;;3.40;99.90;;;;;;5092863;28;20389;-53
2022/04/10 02:35:10;;;;;;;;;;;3.30;99.90;;;;;;5091743;28;19931;-53
2022/04/10 02:37:35;;;;;;;;;;;3.30;99.90;;;;;;5092649;28;19978;-54
2022/04/10 02:40:01;;;;;;;;;;;3.30;99.90;;;;;;5074621;28;19919;-57
2022/04/10 02:42:27;;;;;;;;;;;3.30;99.90;;;;;;5091166;28;19923;-54
2022/04/10 02:44:53;;;;;;;;;;;3.30;99.90;;;;;;5092999;28;19994;-54
2022/04/10 02:47:19;;;;;;;;;;;3.30;99.90;;;;;;5092882;28;19989;-56
2022/04/10 02:49:44;;;;;;;;;;;3.30;99.90;;;;;;5092015;28;19912;-53
2022/04/10 02:52:09;;;;;;;;;;;3.30;99.90;;;;;;5092073;28;19916;-55
2022/04/10 02:54:36;;;;;;;;;;;3.30;99.90;;;;;;5092313;28;19924;-53
2022/04/10 02:57:01;;;;;;;;;;;3.30;99.90;;;;;;5091735;28;20278;-55
2022/04/10 02:59:27;;;;;;;;;;;3.30;99.90;;;;;;5092661;28;19908;-53
2022/04/10 03:01:52;;;;;;;;;;;3.20;99.90;;;;;;5092601;28;19912;-55
2022/04/10 03:04:18;;;;;;;;;;;3.10;99.90;;;;;;5091541;28;19915;-53
2022/04/10 03:06:43;;;;;;;;;;;3.00;99.90;;;;;;5092496;28;19912;-55
2022/04/10 03:09:08;;;;;;;;;;;3.00;99.90;;;;;;5092494;28;19908;-54
2022/04/10 03:11:34;;;;;;;;;;;3.00;99.90;;;;;;5091635;28;20290;-55
2022/04/10 03:13:59;;;;;;;;;;;3.10;99.90;;;;;;5092675;28;19943;-56
2022/04/10 03:16:25;;;;;;;;;;;3.10;99.90;;;;;;5091331;28;19919;-51
2022/04/10 03:18:51;;;;;;;;;;;3.20;99.90;;;;;;5092635;28;19908;-56
2022/04/10 03:21:17;;;;;;;;;;;3.30;99.90;;;;;;5092386;28;19974;-54
2022/04/10 03:23:43;;;;;;;;;;;3.40;99.90;;;;;;5091831;28;19938;-56
2022/04/10 03:26:08;;;;;;;;;;;3.50;99.90;;;;;;5091737;28;19967;-53
2022/04/10 03:28:34;;;;;;;;;;;3.50;99.90;;;;;;5091809;28;19919;-55
2022/04/10 03:30:59;;;;;;;;;;;3.60;99.90;;;;;;5091519;28;20412;-56
2022/04/10 03:33:25;;;;;;;;;;;3.60;99.90;;;;;;5092384;28;19912;-54
2022/04/10 03:35:52;;;;;;;;;;;3.70;99.90;;;;;;5090658;28;19990;-56
2022/04/10 03:38:17;;;;;;;;;;;3.70;99.90;;;;;;5090833;28;19912;-55
2022/04/10 03:40:42;;;;;;;;;;;3.70;99.90;;;;;;5090986;28;19912;-55
2022/04/10 03:43:08;;;;;;;;;;;3.70;99.90;;;;;;5091336;28;19965;-54
2022/04/10 03:45:33;;;;;;;;;;;3.70;99.90;;;;;;5090370;28;19908;-55
2022/04/10 03:47:59;;;;;;;;;;;3.80;99.90;;;;;;5091230;28;19912;-54
2022/04/10 03:50:25;;;;;;;;;;;3.80;99.90;;;;;;5091141;28;20003;-55
2022/04/10 03:52:51;;;;;;;;;;;3.80;99.90;;;;;;5091132;28;19921;-55
2022/04/10 03:55:16;;;;;;;;;;;3.80;99.90;;;;;;5094957;28;20387;-56
2022/04/10 03:57:42;;;;;;;;;;;3.90;99.90;;;;;;5094674;28;19912;-46
2022/04/10 04:00:07;;;;;;;;;;;3.90;99.90;;;;;;5093463;28;19912;-49
2022/04/10 04:02:33;;;;;;;;;;;3.90;99.90;;;;;;5094470;28;20060;-50
2022/04/10 04:04:58;;;;;;;;;;;3.90;99.90;;;;;;5094846;28;19912;-49
2022/04/10 04:07:24;;;;;;;;;;;3.90;99.90;;;;;;5093628;28;19948;-51
2022/04/10 04:09:49;;;;;;;;;;;3.80;99.90;;;;;;5094543;28;19994;-51
2022/04/10 04:12:15;;;;;;;;;;;3.70;99.90;;;;;;5094527;28;19919;-54
2022/04/10 04:14:41;;;;;;;;;;;3.60;99.90;;;;;;5093724;28;19920;-52
2022/04/10 04:17:07;;;;;;;;;;;3.50;99.90;;;;;;5094208;28;19913;-55
2022/04/10 04:19:32;;;;;;;;;;;3.50;99.90;;;;;;5094416;28;19969;-57
2022/04/10 04:21:58;;;;;;;;;;;3.50;99.90;;;;;;5093677;28;19908;-55
2022/04/10 04:24:23;;;;;;;;;;;3.50;99.90;;;;;;5094111;28;19959;-54
2022/04/10 04:26:49;;;;;;;;;;;3.60;99.90;;;;;;5093252;28;20436;-55
2022/04/10 04:29:14;;;;;;;;;;;3.60;99.90;;;;;;5093801;28;19966;-54
2022/04/10 04:31:40;;;;;;;;;;;3.70;99.90;;;;;;5094211;28;19912;-53
2022/04/10 04:34:07;;;;;;;;;;;3.70;99.90;;;;;;5093198;28;20359;-55
2022/04/10 04:36:32;;;;;;;;;;;3.70;99.90;;;;;;5093226;28;20457;-52
2022/04/10 04:38:58;;;;;;;;;;;3.60;99.90;;;;;;5093608;28;19951;-55
2022/04/10 04:41:23;;;;;;;;;;;3.70;99.90;;;;;;5093291;28;19974;-54
2022/04/10 04:43:49;;;;;;;;;;;3.60;99.90;;;;;;5093869;28;20424;-54
2022/04/10 04:46:15;;;;;;;;;;;3.50;99.90;;;;;;5093466;28;19917;-52
2022/04/10 04:48:40;;;;;;;;;;;3.40;99.90;;;;;;5093440;28;19908;-54
2022/04/10 04:51:05;;;;;;;;;;;3.40;99.90;;;;;;5093623;28;20395;-56
2022/04/10 04:53:31;;;;;;;;;;;3.30;99.90;;;;;;5093847;28;19908;-55
2022/04/10 04:55:56;;;;;;;;;;;3.20;99.90;;;;;;5092624;28;20434;-56
2022/04/10 04:58:22;;;;;;;;;;;3.20;99.90;;;;;;5093666;28;20401;-55
2022/04/10 05:00:47;;;;;;;;;;;3.20;99.90;;;;;;5093823;28;20358;-55
2022/04/10 05:03:14;;;;;;;;;;;3.10;99.90;;;;;;5093055;28;20363;-56
2022/04/10 05:05:40;;;;;;;;;;;3.20;99.90;;;;;;5092069;28;19978;-52
2022/04/10 05:08:06;;;;;;;;;;;3.20;99.90;;;;;;5093306;28;19955;-55
2022/04/10 05:10:31;;;;;;;;;;;3.10;99.90;;;;;;5092390;28;19916;-56
2022/04/10 05:12:57;;;;;;;;;;;3.10;99.90;;;;;;5093619;28;19966;-54
2022/04/10 05:15:22;;;;;;;;;;;3.10;99.90;;;;;;5092971;28;19928;-54
2022/04/10 05:17:48;;;;;;;;;;;3.10;99.90;;;;;;5092755;28;19912;-56
2022/04/10 05:20:13;;;;;;;;;;;3.10;99.90;;;;;;5093161;28;19908;-54
2022/04/10 05:22:39;;;;;;;;;;;3.10;99.90;;;;;;5093104;28;19956;-57
2022/04/10 05:25:04;;;;;;;;;;;3.10;99.90;;;;;;5092072;28;19912;-54
2022/04/10 05:27:30;;;;;;;;;;;3.10;99.90;;;;;;5093315;28;19946;-55
2022/04/10 05:29:55;;;;;;;;;;;3.10;99.90;;;;;;5092324;28;19912;-52
2022/04/10 05:32:21;;;;;;;;;;;3.20;99.90;;;;;;5092418;28;19916;-55
2022/04/10 05:34:46;;;;;;;;;;;3.20;99.90;;;;;;5092844;28;19927;-55
2022/04/10 05:37:12;;;;;;;;;;;3.20;99.90;;;;;;5091813;28;19939;-54
2022/04/10 05:39:39;;;;;;;;;;;3.30;99.90;;;;;;5092583;28;20387;-52
2022/04/10 05:42:06;;;;;;;;;;;3.30;99.90;;;;;;5092697;28;19912;-56
2022/04/10 05:44:32;;;;;;;;;;;3.30;99.90;;;;;;5091582;28;19916;-55
2022/04/10 05:46:57;;;;;;;;;;;3.30;99.90;;;;;;5092451;28;19912;-55
2022/04/10 05:49:23;;;;;;;;;;;3.30;99.90;;;;;;5092860;28;20392;-52
2022/04/10 05:51:50;;;;;;;;;;;3.30;99.90;;;;;;5091746;28;20317;-55
2022/04/10 05:54:15;;;;;;;;;;;3.40;99.90;;;;;;5091726;28;19924;-52
2022/04/10 05:56:41;;;;;;;;;;;3.40;99.90;;;;;;5092623;28;19912;-54
2022/04/10 05:59:06;;;;;;;;;;;3.40;99.90;;;;;;5091119;28;19912;-53
2022/04/10 06:01:32;;;;;;;;;;;3.50;99.90;;;;;;5092397;28;20023;-54
2022/04/10 06:03:57;;;;;;;;;;;3.60;99.90;;;;;;5092188;28;19951;-55
2022/04/10 06:06:23;;;;;;;;;;;3.70;99.90;;;;;;5091691;28;19912;-53
2022/04/10 06:08:48;;;;;;;;;;;3.80;99.90;;;;;;5092282;28;19912;-57
2022/04/10 06:11:14;;;;;;;;;;;3.80;99.90;;;;;;5092189;28;19951;-49
2022/04/10 06:13:39;;;;;;;;;;;4.00;99.90;;;;;;5091239;28;19971;-53
2022/04/10 06:16:05;;;;;;;;;;;4.00;99.90;;;;;;5090948;28;20362;-52
2022/04/10 06:18:30;;;;;;;;;;;4.10;99.90;;;;;;5092361;28;19982;-54
2022/04/10 06:20:55;;;;;;;;;;;4.10;99.90;;;;;;5091350;28;20454;-55
2022/04/10 06:23:23;;;;;;;;;;;4.10;99.90;;;;;;5092208;28;19908;-56
2022/04/10 06:25:49;;;;;;;;;;;4.20;99.90;;;;;;5092079;28;19913;-56
2022/04/10 06:28:14;;;;;;;;;;;4.30;99.90;;;;;;5091082;28;19912;-56
2022/04/10 06:30:40;;;;;;;;;;;4.50;99.90;;;;;;5091825;28;20442;-56
2022/04/10 06:33:05;;;;;;;;;;;4.70;99.90;;;;;;5092094;28;19912;-54
2022/04/10 06:35:31;;;;;;;;;;;4.70;99.90;;;;;;5090613;28;20459;-55
2022/04/10 06:37:56;;;;;;;;;;;4.70;99.90;;;;;;5071889;28;20368;-56
2022/04/10 06:40:22;;;;;;;;;;;4.50;99.90;;;;;;5070851;28;20298;-56
2022/04/10 06:42:47;;;;;;;;;;;4.40;99.90;;;;;;5071462;28;20256;-57
2022/04/10 06:45:13;;;;;;;;;;;4.30;99.90;;;;;;5071203;28;19999;-55
2022/04/10 06:47:38;;;;;;;;;;;4.20;99.90;;;;;;5069880;28;19974;-55
2022/04/10 06:50:04;;;;;;;;;;;4.30;99.90;;;;;;5070823;28;19923;-56
2022/04/10 06:52:29;;;;;;;;;;;4.40;99.90;;;;;;5070983;28;19912;-55
2022/04/10 06:54:55;;;;;;;;;;;4.50;99.90;;;;;;5070914;28;19970;-54
2022/04/10 06:57:20;;;;;;;;;;;4.60;99.90;;;;;;5071032;28;19965;-56
2022/04/10 06:59:45;;;;;;;;;;;4.70;99.90;;;;;;5070695;28;19916;-53
2022/04/10 07:02:11;;;;;;;;;;;4.80;99.90;;;;;;5069880;28;20000;-56
2022/04/10 07:04:36;;;;;;;;;;;4.80;99.90;;;;;;5067312;28;19912;-51
2022/04/10 07:07:02;;;;;;;;;;;4.80;99.90;;;;;;5070780;28;19916;-54
2022/04/10 07:09:28;;;;;;;;;;;4.90;99.90;;;;;;5069688;28;19915;-50
2022/04/10 07:11:53;;;;;;;;;;;5.00;99.90;;;;;;5070572;28;19908;-54
2022/04/10 07:14:19;;;;;;;;;;;5.20;99.90;;;;;;5069861;28;19921;-51
2022/04/10 07:16:44;;;;;;;;;;;5.30;99.90;;;;;;5069808;28;19908;-56
2022/04/10 07:19:09;;;;;;;;;;;5.50;99.90;;;;;;5069898;28;19916;-55
2022/04/10 07:24:19;;;;;;;;;;;5.70;99.90;;;;;;5070592;28;19954;-51
2022/04/10 07:26:44;;;;;;;;;;;5.80;99.90;;;;;;5071245;28;19912;-53
2022/04/10 07:29:12;;;;;;;;;;;5.80;99.90;;;;;;5075660;28;19957;-51
2022/04/10 07:31:39;;;;;;;;;;;5.70;99.90;;;;;;5074548;28;19919;-53
2022/04/10 07:34:04;;;;;;;;;;;5.70;99.90;;;;;;5075033;28;19977;-56
2022/04/10 07:36:31;;;;;;;;;;;5.60;99.90;;;;;;5087225;28;20014;-56
2022/04/10 07:38:57;;;;;;;;;;;5.70;99.90;;;;;;5115270;28;20341;-54
2022/04/10 07:41:23;;;;;;;;;;;5.70;99.90;;;;;;5104179;28;19912;-51
2022/04/10 07:43:48;;;;;;;;;;;5.80;99.90;;;;;;5094061;28;20037;-53
2022/04/10 07:48:58;;;;;;;;;;;6.00;99.90;;;;;;5091516;28;19961;-50
2022/04/10 07:51:23;;;;;;;;;;;6.10;99.90;;;;;;5088382;28;20411;-53
2022/04/10 07:53:49;;;;;;;;;;;6.10;99.90;;;;;;5098282;28;20397;-52
2022/04/10 07:56:14;;;;;;;;;;;6.20;99.90;;;;;;5092934;28;19915;-54
2022/04/10 07:58:40;;;;;;;;;;;6.30;99.90;;;;;;5091344;28;19919;-52
2022/04/10 08:01:05;;;;;;;;;;;6.30;99.90;;;;;;5093560;28;19915;-50
2022/04/10 08:03:30;;;;;;;;;;;6.50;99.90;;;;;;5093072;28;20276;-54
2022/04/10 08:05:56;;;;;;;;;;;6.60;99.90;;;;;;5093497;28;20306;-47
2022/04/10 08:08:22;;;;;;;;;;;6.70;99.90;;;;;;5094385;28;19912;-53
2022/04/10 08:10:47;;;;;;;;;;;6.80;99.90;;;;;;5094961;28;19919;-53
2022/04/10 08:13:13;;;;;;;;;;;7.00;99.90;;;;;;5094081;28;20371;-54
2022/04/10 08:15:38;;;;;;;;;;;7.20;99.90;;;;;;5094463;28;20426;-53
2022/04/10 08:18:04;;;;;;;;;;;7.30;99.90;;;;;;5095142;28;20465;-55
2022/04/10 08:20:30;;;;;;;;;;;7.40;99.90;;;;;;5094183;28;20311;-51
2022/04/10 08:22:59;;;;;;;;;;;7.40;99.90;;;;;;5094770;28;19915;-51
2022/04/10 08:25:25;;;;;;;;;;;7.40;99.90;;;;;;5094570;28;19918;-52
2022/04/10 08:27:51;;;;;;;;;;;7.50;99.90;;;;;;5093510;28;19913;-50
2022/04/10 08:30:16;;;;;;;;;;;7.50;99.90;;;;;;5094634;28;20263;-48
2022/04/10 08:32:43;;;;;;;;;;;7.60;99.90;;;;;;5094587;28;19962;-50
2022/04/10 08:35:09;;;;;;;;;;;7.60;99.90;;;;;;5093016;28;19927;-52
2022/04/10 08:37:34;;;;;;;;;;;7.60;99.90;;;;;;5093990;28;19924;-49
2022/04/10 08:40:00;;;;;;;;;;;7.60;99.90;;;;;;5092502;28;19909;-46
2022/04/10 08:42:25;;;;;;;;;;;7.70;99.90;;;;;;5094412;28;19915;-47
2022/04/10 08:44:52;;;;;;;;;;;7.70;99.90;;;;;;5093786;28;19912;-53
2022/04/10 08:47:21;;;;;;;;;;;7.80;99.90;;;;;;5093274;28;19919;-49
2022/04/10 08:49:47;;;;;;;;;;;7.90;99.90;;;;;;5094104;28;19998;-48
2022/04/10 08:52:12;;;;;;;;;;;8.00;99.90;;;;;;5094263;28;19912;-50
2022/04/10 08:54:40;;;;;;;;;;;8.10;99.90;;;;;;5092298;28;19943;-50
2022/04/10 08:57:06;;;;;;;;;;;8.20;99.90;;;;;;5100003;28;19919;-54
2022/04/10 08:59:32;;;;;;;;;;;8.30;99.60;;;;;;5094103;28;19908;-54
2022/04/10 09:01:57;;;;;;;;;;;8.30;99.90;;;;;;5093137;28;20030;-49
2022/04/10 09:04:23;;;;;;;;;;;8.20;98.20;;;;;;5093643;28;19912;-51
2022/04/10 09:06:59;;;;;;;;;;;8.20;99.90;;;;;;5093803;28;19997;-51
2022/04/10 09:09:24;;;;;;;;;;;8.20;99.90;;;;;;5093061;28;19908;-52
2022/04/10 09:11:54;;;;;;;;;;;8.30;99.90;;;;;;5093457;28;19914;-49
2022/04/10 09:14:23;;;;;;;;;;;8.40;99.90;;;;;;5093106;28;19920;-47
2022/04/10 09:17:09;;;;;;;;;;;8.60;99.90;;;;;;5092586;28;19912;-49
2022/04/10 09:19:36;;;;;;;;;;;8.70;92.60;;;;;;5092687;28;19958;-52
2022/04/10 09:22:20;;;;;;;;;;;8.80;96.60;;;;;;5093576;28;19908;-52
2022/04/10 09:25:04;;;;;;;;;;;9.00;93.60;;;;;;5093365;28;19912;-48
2022/04/10 09:27:33;;;;;;;;;;;9.00;88.30;;;;;;5093332;28;19908;-46
2022/04/10 09:29:59;;;;;;;;;;;8.90;90.30;;;;;;5092788;28;20338;-50
2022/04/10 09:32:36;;;;;;;;;;;8.80;92.00;;;;;;5074796;28;20015;-48
2022/04/10 09:35:02;;;;;;;;;;;8.80;91.20;;;;;;5093510;28;19916;-49
2022/04/10 09:37:30;;;;;;;;;;;9.00;95.70;;;;;;5091808;28;19927;-51
2022/04/10 09:40:15;;;;;;;;;;;9.20;90.60;;;;;;5088782;28;19919;-48
2022/04/10 09:42:41;;;;;;;;;;;9.50;91.90;;;;;;5091607;28;20000;-48
2022/04/10 09:45:25;;;;;;;;;;;9.70;90.90;;;;;;5091623;28;19966;-52
2022/04/10 09:47:50;;;;;;;;;;;9.70;79.00;;;;;;5092399;28;19915;-53
2022/04/10 09:50:16;;;;;;;;;;;9.40;77.40;;;;;;5091296;28;19912;-51
2022/04/10 09:52:41;;;;;;;;;;;9.10;76.40;;;;;;5091318;28;19915;-52
2022/04/10 09:55:08;;;;;;;;;;;9.00;83.40;;;;;;5092012;28;19920;-51
2022/04/10 09:57:34;;;;;;;;;;;9.00;84.10;;;;;;5090432;28;20441;-51
2022/04/10 10:00:01;;;;;;;;;;;9.20;92.50;;;;;;5092442;28;19986;-50
2022/04/10 10:02:27;;;;;;;;;;;9.50;92.70;;;;;;5092105;28;19908;-51
2022/04/10 10:04:55;;;;;;;;;;;9.60;82.30;;;;;;5090938;28;20267;-51
2022/04/10 10:07:20;;;;;;;;;;;9.70;81.40;;;;;;5091784;28;19908;-45
2022/04/10 10:09:48;;;;;;;;;;;9.60;89.70;;;;;;5092110;28;19912;-50
2022/04/10 10:12:13;;;;;;;;;;;9.60;79.90;;;;;;5092011;28;19908;-54
2022/04/10 10:14:39;;;;;;;;;;;9.60;75.30;;;;;;5092402;28;19923;-50
2022/04/10 10:17:05;;;;;;;;;;;9.70;70.60;;;;;;5092423;28;20003;-48
2022/04/10 10:19:35;;;;;;;;;;;9.90;77.10;;;;;;5091992;28;20275;-53
2022/04/10 10:22:06;;;;;;;;;;;10.10;84.10;;;;;;5092643;28;19908;-48
2022/04/10 10:24:50;;;;;;;;;;;10.40;71.30;;;;;;5092431;28;20367;-46
2022/04/10 10:27:28;;;;;;;;;;;10.50;70.40;;;;;;5092722;28;20324;-46
2022/04/10 10:30:09;;;;;;;;;;;10.50;70.30;;;;;;5112702;28;19961;-48
2022/04/10 10:32:41;;;;;;;;;;;10.30;73.90;;;;;;5111909;28;19914;-52
2022/04/10 10:35:10;;;;;;;;;;;9.80;85.80;;;;;;5112493;28;19984;-47
2022/04/10 10:37:46;;;;;;;;;;;9.30;98.20;;;;;;5097871;28;19920;-49
2022/04/10 10:40:18;;;;;;;;;;;9.00;99.90;;;;;;5091763;28;19955;-49
2022/04/10 10:42:45;;;;;;;;;;;8.80;99.90;;;;;;5091990;28;19908;-51
2022/04/10 10:45:11;;;;;;;;;;;8.80;99.90;;;;;;5091883;28;19912;-49
2022/04/10 10:47:36;;;;;;;;;;;9.00;99.90;;;;;;5090563;28;19977;-47
2022/04/10 10:50:22;;;;;;;;;;;9.20;99.90;;;;;;5092199;28;19916;-48
2022/04/10 10:53:04;;;;;;;;;;;9.50;99.90;;;;;;5091858;28;20351;-53
2022/04/10 10:55:42;;;;;;;;;;;9.70;84.40;;;;;;5091379;28;19938;-47
2022/04/10 10:58:07;;;;;;;;;;;9.90;94.80;;;;;;5091790;28;20007;-47
2022/04/10 11:00:37;;;;;;;;;;;10.20;90.10;;;;;;5091273;28;20354;-50
2022/04/10 11:03:08;;;;;;;;;;;10.40;95.70;;;;;;5096302;28;20407;-52
2022/04/10 11:05:35;;;;;;;;;;;10.70;80.00;;;;;;5098481;28;20263;-56
2022/04/10 11:08:08;;;;;;;;;;;10.70;77.40;;;;;;5097758;28;19916;-48
2022/04/10 11:10:37;;;;;;;;;;;10.50;81.30;;;;;;5098419;28;20037;-54
2022/04/10 11:13:05;;;;;;;;;;;10.30;90.40;;;;;;5098086;28;20015;-50
2022/04/10 11:15:54;;;;;;;;;;;10.40;86.00;;;;;;5097140;28;20195;-51
2022/04/10 11:18:23;;;;;;;;;;;10.60;83.60;;;;;;5098440;28;19909;-56
2022/04/10 11:20:55;;;;;;;;;;;10.70;78.70;;;;;;5097572;28;20166;-49
2022/04/10 11:23:21;;;;;;;;;;;10.60;81.70;;;;;;5097904;28;19916;-52
2022/04/10 11:25:52;;;;;;;;;;;10.70;87.20;;;;;;5098500;28;20376;-48
2022/04/10 11:28:17;;;;;;;;;;;10.60;77.00;;;;;;5098206;28;19908;-47
2022/04/10 11:30:45;;;;;;;;;;;10.50;82.50;;;;;;5115232;28;19919;-48
2022/04/10 11:33:11;;;;;;;;;;;10.40;85.80;;;;;;5110540;28;19915;-48
2022/04/10 11:35:37;;;;;;;;;;;10.40;90.90;;;;;;5097107;28;20264;-47
2022/04/10 11:38:15;;;;;;;;;;;10.60;78.60;;;;;;5096095;28;20494;-49
2022/04/10 11:40:47;;;;;;;;;;;10.80;73.90;;;;;;5093413;28;19912;-53
2022/04/10 11:43:14;;;;;;;;;;;10.90;74.00;;;;;;5096108;28;19968;-58
2022/04/10 11:45:39;;;;;;;;;;;10.90;72.80;;;;;;5093992;28;20362;-49
2022/04/10 11:48:06;;;;;;;;;;;11.10;74.10;;;;;;5095893;28;19999;-55
2022/04/10 11:50:32;;;;;;;;;;;11.40;74.00;;;;;;5096048;28;20059;-48
2022/04/10 11:52:59;;;;;;;;;;;11.50;81.30;;;;;;5096765;28;19994;-52
2022/04/10 11:55:29;;;;;;;;;;;11.50;75.10;;;;;;5093270;28;19926;-45
2022/04/10 11:57:55;;;;;;;;;;;11.10;74.80;;;;;;5097940;28;19924;-53
2022/04/10 12:00:20;;;;;;;;;;;10.90;70.90;;;;;;5096878;28;19908;-51
2022/04/10 12:02:48;;;;;;;;;;;11.10;71.60;;;;;;5096655;28;19909;-51
2022/04/10 12:05:14;;;;;;;;;;;11.10;69.90;;;;;;5096325;28;19912;-52
2022/04/10 12:07:41;;;;;;;;;;;11.20;65.80;;;;;;5097538;28;19908;-49
2022/04/10 12:10:07;;;;;;;;;;;11.30;70.60;;;;;;5098292;28;19962;-51
2022/04/10 12:12:35;;;;;;;;;;;11.50;69.30;;;;;;5097322;28;19908;-48
2022/04/10 12:15:01;;;;;;;;;;;11.40;68.90;;;;;;5095445;28;20010;-54
2022/04/10 12:17:26;;;;;;;;;;;11.70;70.60;;;;;;5095004;28;19951;-48
2022/04/10 12:19:55;;;;;;;;;;;12.10;72.50;;;;;;5094007;28;19954;-52
2022/04/10 12:22:24;;;;;;;;;;;12.20;69.10;;;;;;5094978;28;19919;-50
2022/04/10 12:24:56;;;;;;;;;;;12.00;68.50;;;;;;5094733;28;20011;-52
2022/04/10 12:27:22;;;;;;;;;;;11.70;68.30;;;;;;5094804;28;19935;-51
2022/04/10 12:29:47;;;;;;;;;;;11.70;61.60;;;;;;5094385;28;20343;-54
2022/04/10 12:32:13;;;;;;;;;;;11.80;63.70;;;;;;5094078;28;19919;-53
2022/04/10 12:34:39;;;;;;;;;;;12.00;61.40;;;;;;5094268;28;19916;-51
2022/04/10 12:37:06;;;;;;;;;;;11.90;62.10;;;;;;5094180;28;19927;-50
2022/04/10 12:39:31;;;;;;;;;;;11.80;65.90;;;;;;5093562;28;19920;-51
2022/04/10 12:41:58;;;;;;;;;;;11.70;66.60;;;;;;5094296;28;20377;-52
2022/04/10 12:44:24;;;;;;;;;;;11.70;74.80;;;;;;5094099;28;19916;-51
2022/04/10 12:46:49;;;;;;;;;;;11.70;72.20;;;;;;5093388;28;19912;-51
2022/04/10 12:49:16;;;;;;;;;;;11.70;75.80;;;;;;5094486;28;19909;-45
2022/04/10 12:51:48;;;;;;;;;;;11.60;71.50;;;;;;5093983;28;19915;-52
2022/04/10 12:54:14;;;;;;;;;;;11.50;71.60;;;;;;5093459;28;20018;-49
2022/04/10 12:56:39;;;;;;;;;;;11.80;72.20;;;;;;5093972;28;19995;-50
2022/04/10 12:59:05;;;;;;;;;;;11.90;66.50;;;;;;5094241;28;19908;-51
2022/04/10 13:01:31;;;;;;;;;;;12.00;69.70;;;;;;5093060;28;19912;-49
2022/04/10 13:03:58;;;;;;;;;;;12.10;63.60;;;;;;5093948;28;20310;-49
2022/04/10 13:06:27;;;;;;;;;;;12.40;62.90;;;;;;5093615;28;20378;-52
2022/04/10 13:08:53;;;;;;;;;;;12.60;60.80;;;;;;5092947;28;19909;-50
2022/04/10 13:11:18;;;;;;;;;;;12.70;59.90;;;;;;5093846;28;19915;-48
2022/04/10 13:13:56;;;;;;;;;;;13.00;60.00;;;;;;5093880;28;20370;-53
2022/04/10 13:16:31;;;;;;;;;;;13.10;59.40;;;;;;5093110;28;19918;-52
2022/04/10 13:19:01;;;;;;;;;;;12.80;58.50;;;;;;5093694;28;20362;-50
2022/04/10 13:21:26;;;;;;;;;;;12.40;57.90;;;;;;5091780;28;19908;-50
2022/04/10 13:23:52;;;;;;;;;;;12.40;61.00;;;;;;5092933;28;19958;-51
2022/04/10 13:26:27;;;;;;;;;;;12.20;60.90;;;;;;5091248;28;19970;-51
2022/04/10 13:28:53;;;;;;;;;;;12.00;63.20;;;;;;5091262;28;19938;-48
2022/04/10 13:31:19;;;;;;;;;;;11.80;65.20;;;;;;5091918;28;19920;-52
2022/04/10 13:33:45;;;;;;;;;;;11.90;65.30;;;;;;5091704;28;20003;-53
2022/04/10 13:36:10;;;;;;;;;;;12.10;59.50;;;;;;5090990;28;20007;-54
2022/04/10 13:38:35;;;;;;;;;;;12.20;58.20;;;;;;5091709;28;19934;-52
2022/04/10 13:41:02;;;;;;;;;;;12.40;56.70;;;;;;5091773;28;19912;-56
2022/04/10 13:43:27;;;;;;;;;;;12.70;57.00;;;;;;5088998;28;19912;-52
2022/04/10 13:45:53;;;;;;;;;;;12.70;56.60;;;;;;5092349;28;20440;-49
2022/04/10 13:48:18;;;;;;;;;;;12.50;56.90;;;;;;5091620;28;20452;-49
2022/04/10 13:50:43;;;;;;;;;;;12.50;61.10;;;;;;5090513;28;19915;-51
2022/04/10 13:53:09;;;;;;;;;;;12.80;62.50;;;;;;5091548;28;19995;-51
2022/04/10 13:55:34;;;;;;;;;;;12.80;57.50;;;;;;5091039;28;19923;-49
2022/04/10 13:58:00;;;;;;;;;;;12.50;57.70;;;;;;5090790;28;19951;-48
2022/04/10 14:00:25;;;;;;;;;;;12.30;58.40;;;;;;5091345;28;19908;-50
2022/04/10 14:02:51;;;;;;;;;;;12.10;61.80;;;;;;5091389;28;19912;-51
2022/04/10 14:05:16;;;;;;;;;;;11.90;64.20;;;;;;5090077;28;20371;-50
2022/04/10 14:07:41;;;;;;;;;;;11.80;64.10;;;;;;5091348;28;19931;-53
2022/04/10 14:10:07;;;;;;;;;;;11.90;66.00;;;;;;5092978;28;19915;-51
2022/04/10 14:12:32;;;;;;;;;;;12.00;66.20;;;;;;5102351;28;19915;-49
2022/04/10 14:14:58;;;;;;;;;;;11.60;59.30;;;;;;5096181;28;20007;-52
2022/04/10 14:17:23;;;;;;;;;;;11.70;60.30;;;;;;5092728;28;20374;-52
2022/04/10 14:19:49;;;;;;;;;;;11.80;63.60;;;;;;5091717;28;19931;-53
2022/04/10 14:22:14;;;;;;;;;;;11.80;63.60;;;;;;5092596;28;19961;-50
2022/04/10 14:24:40;;;;;;;;;;;11.90;62.40;;;;;;5091042;28;19913;-51
2022/04/10 14:27:05;;;;;;;;;;;12.70;68.30;;;;;;5107174;28;19914;-53
2022/04/10 14:29:34;;;;;;;;;;;13.70;70.20;;;;;;5113007;28;19929;-53